createdAt,value
2023-05-08T00:00:43.681Z,16.74
2023-05-08T00:04:07.569Z,16.54
2023-05-08T00:07:31.482Z,16.58
2023-05-08T00:10:55.092Z,16.50
2023-05-08T00:14:18.570Z,16.36
2023-05-08T00:17:42.202Z,16.43
2023-05-08T00:21:07.041Z,16.36
2023-05-08T00:24:30.744Z,16.39
2023-05-08T00:27:54.234Z,16.28
2023-05-08T00:31:17.799Z,16.37
2023-05-08T00:34:41.153Z,16.31
2023-05-08T00:38:04.705Z,16.23
2023-05-08T00:41:28.792Z,16.18
2023-05-08T00:44:52.615Z,16.08
2023-05-08T00:48:16.910Z,16.06
2023-05-08T00:51:41.581Z,15.86
2023-05-08T00:55:05.048Z,15.84
2023-05-08T00:58:29.463Z,15.79
2023-05-08T01:01:53.995Z,15.78
2023-05-08T01:05:18.210Z,15.72
2023-05-08T01:08:42.058Z,15.70
2023-05-08T01:12:05.611Z,15.67
2023-05-08T01:15:29.111Z,15.61
2023-05-08T01:18:52.737Z,15.56
2023-05-08T01:22:16.379Z,15.54
2023-05-08T01:25:40.631Z,15.60
2023-05-08T01:29:05.019Z,15.67
2023-05-08T01:32:28.790Z,15.58
2023-05-08T01:35:52.272Z,15.63
2023-05-08T01:39:17.735Z,15.65
2023-05-08T01:42:42.473Z,15.55
2023-05-08T01:46:06.031Z,15.55
2023-05-08T01:49:30.040Z,15.51
2023-05-08T01:52:54.232Z,15.38
2023-05-08T01:56:18.444Z,15.54
2023-05-08T01:59:42.110Z,15.39
2023-05-08T02:03:07.460Z,15.51
2023-05-08T02:06:31.516Z,15.43
2023-05-08T02:09:54.872Z,15.41
2023-05-08T02:13:20.424Z,15.39
2023-05-08T02:16:43.867Z,15.41
2023-05-08T02:20:07.999Z,15.58
2023-05-08T02:23:32.724Z,15.62
2023-05-08T02:26:57.636Z,15.68
2023-05-08T02:30:23.115Z,15.75
2023-05-08T02:33:46.594Z,15.57
2023-05-08T02:37:10.035Z,15.75
2023-05-08T02:40:33.606Z,15.87
2023-05-08T02:43:57.430Z,15.94
2023-05-08T02:47:20.853Z,15.99
2023-05-08T02:50:44.786Z,16.11
2023-05-08T02:54:08.916Z,16.05
2023-05-08T02:57:32.495Z,16.11
2023-05-08T03:00:56.017Z,16.25
2023-05-08T03:04:20.048Z,16.32
2023-05-08T03:07:43.388Z,16.49
2023-05-08T03:11:07.044Z,16.70
2023-05-08T03:14:30.736Z,16.70
2023-05-08T03:17:55.407Z,16.62
2023-05-08T03:21:19.355Z,16.48
2023-05-08T03:24:43.121Z,16.31
2023-05-08T03:28:06.770Z,16.29
2023-05-08T03:31:31.676Z,16.27
2023-05-08T03:34:56.827Z,16.34
2023-05-08T03:38:20.818Z,16.32
2023-05-08T03:41:44.729Z,16.48
2023-05-08T03:45:08.621Z,16.66
2023-05-08T03:48:32.455Z,16.61
2023-05-08T03:51:56.252Z,16.73
2023-05-08T03:55:20.322Z,16.68
2023-05-08T03:58:45.244Z,16.93
2023-05-08T04:02:10.467Z,17.02
2023-05-08T04:05:33.958Z,17.08
2023-05-08T04:08:59.709Z,17.04
2023-05-08T04:12:23.486Z,17.20
2023-05-08T04:15:48.719Z,17.34
2023-05-08T04:19:12.890Z,17.37
2023-05-08T04:22:36.918Z,17.51
2023-05-08T04:26:00.846Z,17.53
2023-05-08T04:29:26.672Z,17.67
2023-05-08T04:32:50.283Z,17.73
2023-05-08T04:36:14.365Z,17.73
2023-05-08T04:39:40.971Z,17.65
2023-05-08T04:43:06.632Z,17.29
2023-05-08T04:46:30.394Z,17.29
2023-05-08T04:49:54.567Z,17.26
2023-05-08T04:53:18.171Z,17.79
2023-05-08T04:56:42.303Z,18.01
2023-05-08T05:00:06.692Z,18.27
2023-05-08T05:03:34.783Z,17.94
2023-05-08T05:06:58.412Z,18.13
2023-05-08T05:10:22.474Z,17.93
2023-05-08T05:13:46.010Z,17.83
2023-05-08T05:17:10.382Z,18.13
2023-05-08T05:20:35.275Z,18.06
2023-05-08T05:23:59.734Z,18.06
2023-05-08T05:27:24.310Z,18.16
2023-05-08T05:30:48.500Z,18.21
2023-05-08T05:34:12.929Z,18.31
2023-05-08T05:37:37.044Z,18.44
2023-05-08T05:41:00.953Z,18.50
2023-05-08T05:44:24.341Z,18.53
2023-05-08T05:47:54.523Z,18.69
2023-05-08T05:51:21.588Z,18.68
2023-05-08T05:54:46.913Z,18.62
2023-05-08T05:58:10.993Z,18.68
2023-05-08T06:01:35.279Z,18.72
2023-05-08T06:04:58.712Z,18.68
2023-05-08T06:08:22.164Z,18.61
2023-05-08T06:11:45.859Z,18.67
2023-05-08T06:15:10.139Z,18.57
2023-05-08T06:18:34.144Z,18.55
2023-05-08T06:21:58.946Z,18.62
2023-05-08T06:25:22.506Z,18.77
2023-05-08T06:28:46.228Z,18.76
2023-05-08T06:32:10.911Z,18.73
2023-05-08T06:35:35.479Z,18.72
2023-05-08T06:38:59.209Z,18.93
2023-05-08T06:42:25.112Z,19.02
2023-05-08T06:45:48.593Z,18.86
2023-05-08T06:49:12.768Z,18.93
2023-05-08T06:52:36.299Z,19.00
2023-05-08T06:56:00.275Z,19.08
2023-05-08T06:59:26.545Z,19.34
2023-05-08T07:02:50.339Z,19.23
2023-05-08T07:06:14.050Z,19.10
2023-05-08T07:09:37.465Z,19.11
2023-05-08T07:13:02.426Z,19.17
2023-05-08T07:16:26.056Z,19.20
2023-05-08T07:19:49.590Z,19.07
2023-05-08T07:23:12.943Z,19.05
2023-05-08T07:26:37.250Z,19.10
2023-05-08T07:30:04.517Z,19.07
2023-05-08T07:33:31.044Z,18.96
2023-05-08T07:36:55.449Z,19.02
2023-05-08T07:40:18.925Z,19.09
2023-05-08T07:43:45.411Z,19.18
2023-05-08T07:47:09.006Z,19.25
2023-05-08T07:50:32.733Z,19.31
2023-05-08T07:53:56.383Z,19.40
2023-05-08T07:57:19.997Z,19.36
2023-05-08T08:00:44.488Z,19.58
2023-05-08T08:04:08.538Z,19.50
2023-05-08T08:07:35.916Z,19.33
2023-05-08T08:11:00.151Z,19.23
2023-05-08T08:14:25.213Z,19.36
2023-05-08T08:17:49.826Z,19.43
2023-05-08T08:21:13.331Z,19.63
2023-05-08T08:24:44.273Z,19.54
2023-05-08T08:28:08.060Z,19.75
2023-05-08T08:31:31.961Z,19.63
2023-05-08T08:34:55.905Z,19.79
2023-05-08T08:38:19.753Z,19.80
2023-05-08T08:41:43.128Z,19.75
2023-05-08T08:45:07.233Z,19.59
2023-05-08T08:48:30.939Z,19.67
2023-05-08T08:51:54.464Z,19.95
2023-05-08T08:55:18.703Z,19.85
2023-05-08T08:58:44.175Z,19.87
2023-05-08T09:02:08.620Z,19.73
2023-05-08T09:05:33.510Z,19.79
2023-05-08T09:08:57.895Z,20.00
2023-05-08T09:12:21.775Z,20.23
2023-05-08T09:15:47.202Z,20.13
2023-05-08T09:19:11.569Z,20.23
2023-05-08T09:22:35.482Z,20.34
2023-05-08T09:26:01.243Z,20.37
2023-05-08T09:29:26.838Z,20.21
2023-05-08T09:32:50.878Z,20.07
2023-05-08T09:36:14.202Z,19.74
2023-05-08T09:39:41.739Z,19.87
2023-05-08T09:43:05.863Z,19.65
2023-05-08T09:46:32.409Z,19.37
2023-05-08T09:49:57.125Z,19.39
2023-05-08T09:53:20.984Z,19.31
2023-05-08T09:56:44.909Z,19.13
2023-05-08T10:00:10.352Z,19.14
2023-05-08T10:03:35.051Z,19.00
2023-05-08T10:06:59.117Z,19.02
2023-05-08T10:10:22.658Z,19.04
2023-05-08T10:13:46.493Z,18.98
2023-05-08T10:17:09.954Z,18.97
2023-05-08T10:20:33.592Z,18.97
2023-05-08T10:23:57.128Z,18.95
2023-05-08T10:27:20.823Z,18.96
2023-05-08T10:30:45.772Z,19.09
2023-05-08T10:34:09.626Z,19.25
2023-05-08T10:37:33.561Z,19.42
2023-05-08T10:40:58.990Z,19.63
2023-05-08T10:44:22.683Z,19.85
2023-05-08T10:47:46.627Z,19.92
2023-05-08T10:51:10.312Z,19.99
2023-05-08T10:54:33.878Z,20.05
2023-05-08T10:57:57.537Z,19.89
2023-05-08T11:01:21.661Z,19.95
2023-05-08T11:04:45.805Z,20.23
2023-05-08T11:08:09.838Z,20.25
2023-05-08T11:11:36.620Z,20.25
2023-05-08T11:15:00.312Z,20.43
2023-05-08T11:18:26.360Z,20.27
2023-05-08T11:21:49.854Z,20.34
2023-05-08T11:25:13.323Z,20.30
2023-05-08T11:28:37.448Z,20.07
2023-05-08T11:32:01.265Z,20.24
2023-05-08T11:35:25.578Z,20.16
2023-05-08T11:38:49.167Z,20.33
2023-05-08T11:42:12.956Z,20.12
2023-05-08T11:45:36.493Z,20.04
2023-05-08T11:49:04.275Z,20.02
2023-05-08T11:52:27.627Z,20.06
2023-05-08T11:55:51.221Z,19.87
2023-05-08T11:59:14.794Z,20.07
2023-05-08T12:02:38.486Z,20.19
2023-05-08T12:06:02.903Z,20.22
2023-05-08T12:09:26.849Z,20.37
2023-05-08T12:12:56.910Z,20.49
2023-05-08T12:16:27.045Z,20.13
2023-05-08T12:20:04.331Z,20.06
2023-05-08T12:23:29.054Z,19.89
2023-05-08T12:26:52.823Z,19.84
2023-05-08T12:30:16.877Z,19.76
2023-05-08T12:33:40.944Z,19.67
2023-05-08T12:37:04.598Z,19.48
2023-05-08T12:40:28.845Z,19.49
2023-05-08T12:43:53.171Z,19.10
2023-05-08T12:47:16.894Z,18.87
2023-05-08T12:50:41.073Z,18.70
2023-05-08T12:54:07.546Z,18.58
2023-05-08T12:57:31.725Z,18.47
2023-05-08T13:00:55.163Z,18.50
2023-05-08T13:04:20.168Z,18.42
2023-05-08T13:07:43.698Z,18.36
2023-05-08T13:11:09.497Z,18.43
2023-05-08T13:14:33.527Z,18.41
2023-05-08T13:17:58.289Z,18.39
2023-05-08T13:21:26.589Z,18.32
2023-05-08T13:24:51.423Z,18.17
2023-05-08T13:28:14.768Z,18.16
2023-05-08T13:31:38.350Z,18.12
2023-05-08T13:35:03.083Z,18.26
2023-05-08T13:38:26.813Z,18.26
2023-05-08T13:41:50.791Z,18.36
2023-05-08T13:45:18.823Z,18.26
2023-05-08T13:48:42.568Z,18.45
2023-05-08T13:52:05.980Z,18.56
2023-05-08T13:55:29.968Z,18.66
2023-05-08T13:58:54.105Z,18.83
2023-05-08T14:02:19.815Z,18.64
2023-05-08T14:05:44.600Z,18.47
2023-05-08T14:09:09.187Z,18.60
2023-05-08T14:12:36.880Z,18.61
2023-05-08T14:16:02.704Z,18.47
2023-05-08T14:19:31.579Z,18.47
2023-05-08T14:22:59.563Z,18.49
2023-05-08T14:26:23.768Z,18.58
2023-05-08T14:29:49.754Z,18.60
2023-05-08T14:33:13.512Z,18.44
2023-05-08T14:36:56.648Z,18.43
2023-05-08T14:40:22.665Z,18.39
2023-05-08T14:43:50.471Z,18.41
2023-05-08T14:47:14.373Z,18.32
2023-05-08T14:50:38.328Z,18.19
2023-05-08T14:54:02.081Z,18.09
2023-05-08T14:57:26.054Z,18.11
2023-05-08T15:00:49.798Z,18.00
2023-05-08T15:04:14.709Z,17.96
2023-05-08T15:07:41.402Z,17.64
2023-05-08T15:11:05.787Z,17.68
2023-05-08T15:14:30.313Z,17.74
2023-05-08T15:17:53.824Z,17.65
2023-05-08T15:26:11.077Z,17.34
2023-05-08T15:29:36.513Z,17.18
2023-05-08T15:33:00.408Z,17.20
2023-05-08T15:36:24.481Z,17.20
2023-05-08T15:39:50.548Z,17.19
2023-05-08T15:43:14.173Z,16.99
2023-05-08T15:46:39.869Z,16.87
2023-05-08T15:50:03.695Z,16.89
2023-05-08T15:53:28.863Z,16.81
2023-05-08T15:56:53.352Z,16.92
2023-05-08T16:00:22.992Z,16.90
2023-05-08T16:03:48.397Z,16.86
2023-05-08T16:07:15.171Z,16.92
2023-05-08T16:10:38.601Z,16.78
2023-05-08T16:14:02.564Z,16.67
2023-05-08T16:17:27.326Z,16.62
2023-05-08T16:20:53.618Z,16.66
2023-05-08T16:24:19.626Z,16.70
2023-05-08T16:27:45.503Z,16.62
2023-05-08T16:31:10.389Z,16.65
2023-05-08T16:34:36.074Z,16.73
2023-05-08T16:38:02.156Z,16.69
2023-05-08T16:41:28.269Z,16.63
2023-05-08T16:44:52.555Z,16.55
2023-05-08T16:48:16.625Z,16.53
2023-05-08T16:51:41.343Z,16.50
2023-05-08T16:55:05.482Z,16.59
2023-05-08T16:58:30.393Z,16.56
2023-05-08T17:01:54.549Z,16.55
2023-05-08T17:05:18.804Z,16.51
2023-05-08T17:08:43.650Z,16.49
2023-05-08T17:12:08.259Z,16.55
2023-05-08T17:15:33.076Z,16.42
2023-05-08T17:18:57.950Z,16.17
2023-05-08T17:22:22.397Z,16.14
2023-05-08T17:25:46.349Z,16.14
2023-05-08T17:29:09.896Z,16.09
2023-05-08T17:32:34.448Z,15.87
2023-05-08T17:35:59.224Z,15.87
2023-05-08T17:39:23.574Z,15.95
2023-05-08T17:42:51.040Z,15.80
2023-05-08T17:46:15.611Z,15.69
2023-05-08T17:49:40.681Z,15.72
2023-05-08T17:53:05.858Z,15.71
2023-05-08T17:56:31.163Z,15.84
2023-05-08T17:59:57.646Z,15.83
2023-05-08T18:03:24.467Z,15.78
2023-05-08T18:06:51.999Z,15.72
2023-05-08T18:10:16.397Z,15.70
2023-05-08T18:13:41.258Z,15.63
2023-05-08T18:17:07.416Z,15.73
2023-05-08T18:20:31.513Z,15.52
2023-05-08T18:23:55.785Z,15.50
2023-05-08T18:27:19.897Z,15.48
2023-05-08T18:30:45.600Z,15.59
2023-05-08T18:34:13.359Z,15.75
2023-05-08T18:37:37.366Z,15.87
2023-05-08T18:41:03.415Z,15.78
2023-05-08T18:44:28.185Z,15.72
2023-05-08T18:47:53.712Z,15.77
2023-05-08T18:51:18.951Z,15.75
2023-05-08T18:54:42.443Z,15.72
2023-05-08T18:58:06.867Z,15.72
2023-05-08T19:01:30.684Z,15.61
2023-05-08T19:04:54.639Z,15.54
2023-05-08T19:08:19.344Z,15.52
2023-05-08T19:11:43.276Z,15.54
2023-05-08T19:15:09.104Z,15.43
2023-05-08T19:18:32.761Z,15.41
2023-05-08T19:21:56.408Z,15.38
2023-05-08T19:25:20.109Z,15.27
2023-05-08T19:28:44.120Z,15.24
2023-05-08T19:32:08.076Z,15.37
2023-05-08T19:35:32.199Z,15.39
2023-05-08T19:38:57.285Z,15.28
2023-05-08T19:42:21.010Z,15.29
2023-05-08T19:45:46.031Z,15.19
2023-05-08T19:49:10.399Z,15.21
2023-05-08T19:52:34.452Z,15.16
2023-05-08T19:55:58.648Z,15.24
2023-05-08T19:59:21.986Z,15.19
2023-05-08T20:02:45.252Z,15.16
2023-05-08T20:06:09.890Z,15.28
2023-05-08T20:09:33.626Z,15.17
2023-05-08T20:12:57.425Z,15.11
2023-05-08T20:16:21.155Z,15.07
2023-05-08T20:19:44.865Z,15.16
2023-05-08T20:23:08.398Z,15.09
2023-05-08T20:26:33.098Z,15.15
2023-05-08T20:29:57.004Z,15.09
2023-05-08T20:33:21.026Z,15.06
2023-05-08T20:36:45.704Z,15.15
2023-05-08T20:40:10.246Z,15.13
2023-05-08T20:43:33.550Z,15.11
2023-05-08T20:46:58.267Z,15.00
2023-05-08T20:50:23.768Z,15.04
2023-05-08T20:53:11.500Z,15.07
2023-05-08T20:55:40.090Z,15.16
2023-05-08T20:58:11.924Z,15.08
2023-05-08T21:00:40.263Z,14.97
2023-05-08T21:03:09.322Z,14.97
2023-05-08T21:05:37.647Z,14.94
2023-05-08T21:08:06.604Z,14.97
2023-05-08T21:10:34.931Z,15.04
2023-05-08T21:13:03.018Z,15.03
2023-05-08T21:15:31.844Z,14.98
2023-05-08T21:17:59.716Z,14.95
2023-05-08T21:20:28.103Z,15.07
2023-05-08T21:22:56.481Z,15.02
2023-05-08T21:25:26.042Z,15.05
2023-05-08T21:37:48.906Z,14.83
2023-05-08T21:40:39.156Z,14.82
2023-05-08T21:43:07.809Z,14.84
2023-05-08T21:45:54.391Z,14.80
2023-05-08T21:48:24.503Z,14.77
2023-05-08T21:50:54.062Z,14.73
2023-05-08T21:53:41.480Z,14.92
2023-05-08T21:56:28.080Z,14.97
2023-05-08T21:59:14.337Z,14.96
2023-05-08T22:01:44.590Z,14.94
2023-05-08T22:04:12.427Z,14.99
2023-05-08T22:06:43.325Z,14.98
2023-05-08T22:09:12.685Z,15.05
2023-05-08T22:11:40.994Z,14.96
2023-05-08T22:14:10.188Z,14.98
2023-05-08T22:16:38.737Z,15.00
2023-05-08T22:19:07.621Z,14.99
2023-05-08T22:21:36.752Z,15.06
2023-05-08T22:24:05.919Z,15.03
2023-05-08T22:26:53.745Z,15.01
2023-05-08T22:29:25.980Z,15.07
2023-05-08T22:32:19.471Z,14.96
2023-05-08T22:35:09.560Z,14.90
2023-05-08T22:38:00.145Z,14.85
2023-05-08T22:40:50.626Z,14.92
2023-05-08T22:43:20.065Z,14.93
2023-05-08T22:46:07.581Z,15.00
2023-05-08T22:48:37.966Z,14.88
2023-05-08T22:51:07.386Z,14.96
2023-05-08T22:53:36.039Z,14.92
2023-05-08T22:56:05.658Z,15.01
2023-05-08T22:58:34.710Z,14.95
2023-05-08T23:01:03.016Z,14.98
2023-05-08T23:03:54.132Z,15.11
2023-05-08T23:06:40.848Z,14.97
2023-05-08T23:09:28.207Z,14.96
2023-05-08T23:12:17.618Z,15.00
2023-05-08T23:14:48.946Z,14.90
2023-05-08T23:17:21.269Z,14.96
2023-05-08T23:19:52.880Z,14.94
2023-05-08T23:22:23.309Z,14.96
2023-05-08T23:24:53.499Z,14.94
2023-05-08T23:27:21.898Z,14.92
2023-05-08T23:29:53.038Z,14.92
2023-05-08T23:32:21.855Z,15.02
2023-05-08T23:34:50.964Z,14.96
2023-05-08T23:37:20.121Z,14.86
2023-05-08T23:39:50.469Z,14.94
2023-05-08T23:42:18.601Z,14.99
2023-05-08T23:44:49.449Z,14.98
2023-05-08T23:47:19.661Z,14.98
2023-05-08T23:49:49.030Z,14.94
2023-05-08T23:52:17.867Z,14.76
2023-05-08T23:54:46.775Z,14.62
2023-05-08T23:57:34.169Z,14.70
